createdAt,value
2022-10-01T00:00:50.425Z,100.00
2022-10-01T00:03:53.252Z,100.00
2022-10-01T00:06:55.308Z,100.00
2022-10-01T00:09:57.493Z,100.00
2022-10-01T00:12:59.430Z,100.00
2022-10-01T00:16:04.554Z,100.00
2022-10-01T00:19:06.477Z,100.00
2022-10-01T00:22:08.658Z,100.00
2022-10-01T00:25:10.550Z,100.00
2022-10-01T00:28:12.761Z,100.00
2022-10-01T00:31:15.880Z,100.00
2022-10-01T00:34:18.188Z,100.00
2022-10-01T00:37:20.745Z,100.00
2022-10-01T00:40:23.803Z,100.00
2022-10-01T00:43:27.046Z,100.00
2022-10-01T00:46:36.388Z,100.00
2022-10-01T00:49:38.829Z,100.00
2022-10-01T00:52:41.966Z,100.00
2022-10-01T00:55:46.032Z,100.00
2022-10-01T00:58:48.773Z,100.00
2022-10-01T01:01:50.920Z,100.00
2022-10-01T01:04:53.173Z,100.00
2022-10-01T01:07:55.041Z,100.00
2022-10-01T01:10:57.173Z,100.00
2022-10-01T01:14:17.938Z,100.00
2022-10-01T01:17:25.724Z,100.00
2022-10-01T01:20:31.081Z,100.00
2022-10-01T01:23:54.643Z,100.00
2022-10-01T01:27:16.192Z,100.00
2022-10-01T01:30:18.928Z,100.00
2022-10-01T01:33:22.795Z,100.00
2022-10-01T01:36:32.073Z,100.00
2022-10-01T01:39:34.525Z,100.00
2022-10-01T01:42:40.160Z,100.00
2022-10-01T01:45:42.930Z,100.00
2022-10-01T01:48:49.443Z,100.00
2022-10-01T01:51:51.285Z,100.00
2022-10-01T01:54:54.379Z,100.00
2022-10-01T01:57:56.811Z,100.00
2022-10-01T02:00:59.055Z,100.00
2022-10-01T02:04:04.402Z,100.00
2022-10-01T02:07:23.991Z,100.00
2022-10-01T02:10:32.183Z,100.00
2022-10-01T02:13:42.381Z,100.00
2022-10-01T02:16:45.533Z,100.00
2022-10-01T02:19:56.314Z,100.00
2022-10-01T02:23:06.145Z,100.00
2022-10-01T02:26:15.110Z,100.00
2022-10-01T02:29:19.686Z,100.00
2022-10-01T02:32:21.920Z,100.00
2022-10-01T02:35:24.357Z,100.00
2022-10-01T02:38:26.388Z,100.00
2022-10-01T02:41:34.969Z,100.00
2022-10-01T02:44:40.269Z,100.00
2022-10-01T02:47:46.745Z,100.00
2022-10-01T02:50:51.973Z,100.00
2022-10-01T02:54:23.400Z,100.00
2022-10-01T02:57:29.499Z,100.00
2022-10-01T03:00:31.689Z,100.00
2022-10-01T03:03:33.619Z,100.00
2022-10-01T03:06:35.839Z,100.00
2022-10-01T03:09:37.750Z,100.00
2022-10-01T03:12:44.116Z,100.00
2022-10-01T03:15:46.312Z,100.00
2022-10-01T03:18:48.567Z,100.00
2022-10-01T03:21:50.474Z,100.00
2022-10-01T03:24:53.279Z,100.00
2022-10-01T03:27:55.230Z,100.00
2022-10-01T03:31:04.730Z,100.00
2022-10-01T03:34:06.697Z,100.00
2022-10-01T03:37:08.964Z,100.00
2022-10-01T03:40:10.883Z,100.00
2022-10-01T03:43:13.042Z,100.00
2022-10-01T03:46:15.024Z,100.00
2022-10-01T03:49:17.319Z,100.00
2022-10-01T03:52:19.787Z,100.00
2022-10-01T03:55:21.946Z,100.00
2022-10-01T03:58:23.939Z,100.00
2022-10-01T04:01:26.404Z,100.00
2022-10-01T04:04:29.001Z,100.00
2022-10-01T04:07:31.095Z,100.00
2022-10-01T04:10:33.462Z,100.00
2022-10-01T04:13:35.649Z,100.00
2022-10-01T04:16:37.875Z,100.00
2022-10-01T04:19:39.825Z,100.00
2022-10-01T04:22:42.812Z,100.00
2022-10-01T04:25:44.789Z,100.00
2022-10-01T04:28:47.515Z,100.00
2022-10-01T04:31:49.435Z,100.00
2022-10-01T04:34:54.751Z,100.00
2022-10-01T04:38:01.923Z,100.00
2022-10-01T04:41:04.169Z,100.00
2022-10-01T04:44:06.097Z,100.00
2022-10-01T04:47:08.625Z,100.00
2022-10-01T04:50:10.604Z,100.00
2022-10-01T04:53:12.849Z,100.00
2022-10-01T04:56:14.723Z,100.00
2022-10-01T04:59:16.979Z,100.00
2022-10-01T05:02:18.990Z,100.00
2022-10-01T05:05:23.372Z,100.00
2022-10-01T05:08:25.300Z,100.00
2022-10-01T05:11:27.549Z,100.00
2022-10-01T05:14:29.464Z,100.00
2022-10-01T05:17:33.107Z,100.00
2022-10-01T05:20:35.051Z,100.00
2022-10-01T05:23:37.506Z,100.00
2022-10-01T05:26:39.416Z,100.00
2022-10-01T05:29:41.969Z,100.00
2022-10-01T05:32:53.081Z,100.00
2022-10-01T05:35:56.195Z,100.00
2022-10-01T05:38:58.104Z,100.00
2022-10-01T05:42:06.134Z,100.00
2022-10-01T05:45:10.082Z,100.00
2022-10-01T05:48:12.831Z,100.00
2022-10-01T05:51:16.131Z,100.00
2022-10-01T05:54:19.513Z,100.00
2022-10-01T05:57:21.564Z,100.00
2022-10-01T06:00:24.161Z,100.00
2022-10-01T06:03:28.804Z,100.00
2022-10-01T06:06:30.704Z,100.00
2022-10-01T06:09:32.903Z,100.00
2022-10-01T06:12:34.792Z,100.00
2022-10-01T06:15:38.334Z,100.00
2022-10-01T06:18:40.670Z,100.00
2022-10-01T06:21:42.862Z,100.00
2022-10-01T06:24:44.803Z,100.00
2022-10-01T06:27:55.485Z,100.00
2022-10-01T06:31:00.624Z,100.00
2022-10-01T06:34:02.808Z,100.00
2022-10-01T06:37:04.735Z,100.00
2022-10-01T06:40:07.372Z,100.00
2022-10-01T06:43:09.557Z,100.00
2022-10-01T06:46:11.801Z,100.00
2022-10-01T06:49:13.881Z,100.00
2022-10-01T06:52:34.506Z,100.00
2022-10-01T06:55:37.103Z,100.00
2022-10-01T06:58:39.294Z,100.00
2022-10-01T07:01:41.269Z,100.00
2022-10-01T07:04:43.528Z,100.00
2022-10-01T07:07:45.439Z,100.00
2022-10-01T07:10:47.632Z,100.00
2022-10-01T07:13:54.399Z,100.00
2022-10-01T07:16:56.946Z,100.00
2022-10-01T07:19:58.860Z,100.00
2022-10-01T07:23:01.629Z,100.00
2022-10-01T07:26:04.348Z,100.00
2022-10-01T07:29:06.959Z,100.00
2022-10-01T07:32:10.389Z,100.00
2022-10-01T07:35:12.734Z,100.00
2022-10-01T07:38:14.758Z,100.00
2022-10-01T07:41:17.838Z,100.00
2022-10-01T07:44:20.111Z,100.00
2022-10-01T07:47:22.340Z,100.00
2022-10-01T07:50:25.290Z,100.00
2022-10-01T07:53:28.131Z,100.00
2022-10-01T07:56:30.072Z,100.00
2022-10-01T07:59:33.166Z,100.00
2022-10-01T08:02:36.103Z,100.00
2022-10-01T08:05:40.390Z,100.00
2022-10-01T08:08:42.324Z,100.00
2022-10-01T08:11:45.525Z,100.00
2022-10-01T08:14:47.882Z,100.00
2022-10-01T08:17:50.097Z,100.00
2022-10-01T08:20:52.486Z,100.00
2022-10-01T08:23:54.705Z,100.00
2022-10-01T08:26:57.445Z,100.00
2022-10-01T08:29:59.620Z,100.00
2022-10-01T08:33:02.137Z,100.00
2022-10-01T08:36:07.955Z,100.00
2022-10-01T08:39:11.471Z,100.00
2022-10-01T08:42:15.338Z,100.00
2022-10-01T08:45:23.178Z,100.00
2022-10-01T08:48:57.123Z,100.00
2022-10-01T08:52:06.345Z,100.00
2022-10-01T08:55:16.750Z,100.00
2022-10-01T08:58:23.705Z,100.00
2022-10-01T09:01:26.467Z,100.00
2022-10-01T09:04:29.137Z,100.00
2022-10-01T09:07:40.542Z,100.00
2022-10-01T09:10:47.094Z,100.00
2022-10-01T09:14:07.204Z,100.00
2022-10-01T09:17:16.028Z,100.00
2022-10-01T09:20:25.886Z,100.00
2022-10-01T09:23:32.086Z,100.00
2022-10-01T09:26:36.509Z,100.00
2022-10-01T09:29:57.266Z,100.00
2022-10-01T09:33:04.782Z,100.00
2022-10-01T09:36:18.590Z,100.00
2022-10-01T09:39:27.057Z,100.00
2022-10-01T09:42:29.623Z,100.00
2022-10-01T09:45:31.882Z,100.00
2022-10-01T09:48:39.743Z,100.00
2022-10-01T09:51:45.578Z,100.00
2022-10-01T09:54:52.478Z,98.69
2022-10-01T09:58:21.021Z,95.78
2022-10-01T10:01:26.737Z,90.38
2022-10-01T10:04:28.866Z,87.96
2022-10-01T10:07:32.565Z,86.81
2022-10-01T10:10:36.910Z,86.11
2022-10-01T10:13:49.098Z,86.64
2022-10-01T10:16:51.284Z,85.83
2022-10-01T10:19:53.265Z,86.58
2022-10-01T10:23:05.573Z,87.61
2022-10-01T10:26:07.526Z,87.54
2022-10-01T10:29:25.994Z,88.89
2022-10-01T10:32:28.563Z,86.04
2022-10-01T10:35:33.999Z,84.94
2022-10-01T10:38:35.949Z,84.51
2022-10-01T10:41:43.678Z,88.36
2022-10-01T10:44:46.867Z,88.23
2022-10-01T10:47:51.431Z,89.97
2022-10-01T10:50:58.276Z,89.29
2022-10-01T10:54:00.738Z,88.22
2022-10-01T10:57:05.266Z,83.27
2022-10-01T11:00:14.134Z,86.32
2022-10-01T11:03:17.746Z,86.26
2022-10-01T11:06:20.356Z,88.01
2022-10-01T11:09:23.546Z,89.30
2022-10-01T11:12:29.219Z,87.81
2022-10-01T11:15:31.132Z,90.34
2022-10-01T11:18:51.625Z,87.85
2022-10-01T11:22:00.698Z,84.21
2022-10-01T11:25:02.918Z,82.86
2022-10-01T11:28:04.931Z,81.34
2022-10-01T11:31:13.619Z,79.95
2022-10-01T11:34:48.582Z,78.62
2022-10-01T11:37:50.742Z,80.10
2022-10-01T11:41:04.689Z,78.24
2022-10-01T11:44:22.369Z,76.71
2022-10-01T11:47:40.798Z,70.34
2022-10-01T11:50:46.170Z,70.22
2022-10-01T11:53:52.013Z,65.67
2022-10-01T11:57:13.795Z,60.99
2022-10-01T12:00:16.935Z,58.72
2022-10-01T12:03:23.596Z,57.69
2022-10-01T12:06:41.163Z,59.31
2022-10-01T12:09:55.745Z,64.13
2022-10-01T12:13:02.829Z,68.88
2022-10-01T12:16:23.927Z,72.69
2022-10-01T12:19:28.751Z,76.20
2022-10-01T12:22:32.631Z,75.49
2022-10-01T12:25:57.063Z,73.01
2022-10-01T12:29:09.962Z,74.88
2022-10-01T12:32:14.622Z,74.99
2022-10-01T12:35:35.365Z,76.69
2022-10-01T12:38:40.410Z,79.19
2022-10-01T12:42:03.129Z,79.78
2022-10-01T12:45:12.673Z,84.23
2022-10-01T12:48:18.002Z,84.12
2022-10-01T12:51:39.113Z,82.02
2022-10-01T12:54:50.319Z,81.60
2022-10-01T12:57:59.442Z,81.54
2022-10-01T13:01:15.228Z,79.35
2022-10-01T13:04:23.914Z,79.43
2022-10-01T13:07:46.884Z,78.59
2022-10-01T13:10:51.807Z,72.50
2022-10-01T13:13:55.557Z,67.32
2022-10-01T13:17:00.593Z,63.44
2022-10-01T13:20:05.948Z,62.89
2022-10-01T13:23:23.413Z,63.26
2022-10-01T13:26:28.575Z,67.07
2022-10-01T13:29:49.216Z,67.57
2022-10-01T13:33:15.846Z,68.85
2022-10-01T13:36:28.039Z,67.41
2022-10-01T13:39:36.589Z,64.27
2022-10-01T13:42:43.570Z,65.26
2022-10-01T13:45:46.929Z,64.72
2022-10-01T13:48:49.615Z,67.88
2022-10-01T13:51:52.609Z,72.00
2022-10-01T13:54:55.666Z,73.39
2022-10-01T13:58:19.501Z,81.05
2022-10-01T14:01:24.300Z,93.79
2022-10-01T14:04:34.575Z,100.00
2022-10-01T14:07:38.313Z,100.00
2022-10-01T14:11:18.852Z,100.00
2022-10-01T14:14:42.381Z,100.00
2022-10-01T14:17:45.969Z,100.00
2022-10-01T14:20:56.178Z,100.00
2022-10-01T14:24:03.009Z,100.00
2022-10-01T14:27:12.654Z,100.00
2022-10-01T14:30:16.865Z,100.00
2022-10-01T14:33:24.505Z,100.00
2022-10-01T14:36:45.198Z,100.00
2022-10-01T14:39:47.180Z,100.00
2022-10-01T14:43:03.757Z,100.00
2022-10-01T14:46:06.832Z,100.00
2022-10-01T14:49:24.297Z,100.00
2022-10-01T14:52:31.451Z,100.00
2022-10-01T14:55:34.694Z,100.00
2022-10-01T14:58:39.242Z,100.00
2022-10-01T15:01:41.439Z,100.00
2022-10-01T15:04:47.553Z,100.00
2022-10-01T15:07:49.795Z,100.00
2022-10-01T15:10:54.493Z,100.00
2022-10-01T15:14:01.205Z,100.00
2022-10-01T15:17:06.423Z,100.00
2022-10-01T15:20:11.373Z,100.00
2022-10-01T15:23:13.605Z,100.00
2022-10-01T15:26:19.198Z,100.00
2022-10-01T15:29:21.155Z,100.00
2022-10-01T15:32:24.172Z,100.00
2022-10-01T15:35:26.242Z,100.00
2022-10-01T15:38:32.347Z,100.00
2022-10-01T15:41:34.380Z,100.00
2022-10-01T15:44:38.535Z,100.00
2022-10-01T15:47:49.274Z,100.00
2022-10-01T15:50:56.616Z,100.00
2022-10-01T15:54:06.849Z,100.00
2022-10-01T15:57:10.261Z,100.00
2022-10-01T16:00:41.508Z,100.00
2022-10-01T16:04:00.683Z,100.00
2022-10-01T16:07:02.590Z,100.00
2022-10-01T16:10:25.392Z,100.00
2022-10-01T16:13:40.449Z,100.00
2022-10-01T16:16:42.709Z,100.00
2022-10-01T16:19:45.558Z,100.00
2022-10-01T16:22:47.854Z,100.00
2022-10-01T16:25:49.751Z,100.00
2022-10-01T16:29:00.194Z,100.00
2022-10-01T16:32:02.614Z,100.00
2022-10-01T16:35:14.114Z,100.00
2022-10-01T16:38:16.293Z,100.00
2022-10-01T16:41:23.292Z,100.00
2022-10-01T16:44:25.338Z,100.00
2022-10-01T16:47:27.644Z,100.00
2022-10-01T16:50:30.071Z,100.00
2022-10-01T16:53:32.376Z,100.00
2022-10-01T16:56:34.316Z,97.02
2022-10-01T16:59:36.618Z,100.00
2022-10-01T17:02:38.492Z,100.00
2022-10-01T17:05:41.166Z,93.23
2022-10-01T17:08:43.081Z,91.87
2022-10-01T17:11:46.332Z,92.26
2022-10-01T17:14:48.188Z,89.18
2022-10-01T17:17:50.354Z,93.86
2022-10-01T17:20:52.278Z,95.83
2022-10-01T17:23:54.601Z,97.65
2022-10-01T17:26:56.507Z,95.73
2022-10-01T17:29:58.685Z,92.56
2022-10-01T17:33:01.130Z,87.74
2022-10-01T17:36:06.084Z,83.20
2022-10-01T17:39:07.976Z,79.65
2022-10-01T17:42:10.190Z,86.29
2022-10-01T17:45:13.366Z,83.84
2022-10-01T17:48:18.861Z,89.09
2022-10-01T17:51:23.772Z,88.30
2022-10-01T17:54:26.122Z,86.13
2022-10-01T17:57:28.033Z,87.42
2022-10-01T18:00:30.239Z,85.90
2022-10-01T18:03:32.415Z,83.13
2022-10-01T18:06:34.514Z,85.83
2022-10-01T18:09:36.876Z,86.31
2022-10-01T18:12:39.127Z,89.63
2022-10-01T18:15:41.316Z,92.26
2022-10-01T18:22:14.214Z,86.94
2022-10-01T18:25:16.717Z,92.52
2022-10-01T18:28:19.028Z,92.26
2022-10-01T18:31:28.653Z,93.39
2022-10-01T18:34:39.643Z,94.38
2022-10-01T18:37:43.767Z,86.95
2022-10-01T18:40:49.914Z,86.77
2022-10-01T18:43:51.840Z,88.46
2022-10-01T18:47:09.186Z,84.30
2022-10-01T18:50:11.174Z,84.33
2022-10-01T18:53:16.131Z,84.65
2022-10-01T18:56:18.016Z,86.31
2022-10-01T18:59:23.273Z,85.90
2022-10-01T19:02:33.884Z,85.18
2022-10-01T19:05:36.083Z,87.64
2022-10-01T19:08:37.925Z,83.81
2022-10-01T19:11:51.709Z,84.34
2022-10-01T19:14:56.505Z,82.38
2022-10-01T19:18:09.351Z,81.02
2022-10-01T19:21:17.488Z,84.15
2022-10-01T19:24:35.136Z,82.75
2022-10-01T19:27:42.923Z,81.46
2022-10-01T19:31:03.830Z,82.79
2022-10-01T19:34:22.480Z,82.93
2022-10-01T19:37:31.062Z,81.50
2022-10-01T19:40:53.232Z,83.56
2022-10-01T19:43:58.924Z,87.49
2022-10-01T19:47:16.350Z,87.34
2022-10-01T19:50:21.100Z,84.78
2022-10-01T19:53:26.077Z,87.92
2022-10-01T19:56:30.217Z,86.57
2022-10-01T19:59:32.135Z,85.78
2022-10-01T20:02:40.164Z,84.38
2022-10-01T20:05:56.780Z,86.05
2022-10-01T20:09:18.878Z,85.51
2022-10-01T20:12:28.354Z,86.61
2022-10-01T20:15:48.998Z,81.00
2022-10-01T20:18:54.494Z,81.39
2022-10-01T20:22:22.418Z,79.06
2022-10-01T20:25:33.936Z,80.99
2022-10-01T20:28:52.195Z,81.47
2022-10-01T20:32:13.297Z,77.72
2022-10-01T20:35:32.437Z,76.14
2022-10-01T20:38:48.872Z,77.52
2022-10-01T20:41:53.959Z,77.74
2022-10-01T20:44:56.281Z,76.64
2022-10-01T20:48:01.436Z,77.15
2022-10-01T20:51:06.784Z,77.98
2022-10-01T20:54:24.344Z,78.91
2022-10-01T20:57:34.438Z,79.38
2022-10-01T21:00:37.475Z,80.21
2022-10-01T21:03:44.176Z,81.26
2022-10-01T21:06:50.453Z,81.67
2022-10-01T21:09:54.246Z,80.29
2022-10-01T21:12:59.679Z,82.18
2022-10-01T21:16:05.091Z,81.91
2022-10-01T21:19:15.975Z,82.66
2022-10-01T21:22:18.106Z,82.23
2022-10-01T21:25:35.358Z,81.44
2022-10-01T21:28:37.486Z,80.59
2022-10-01T21:31:43.799Z,81.86
2022-10-01T21:35:01.889Z,80.97
2022-10-01T21:38:19.254Z,83.41
2022-10-01T21:41:30.455Z,83.34
2022-10-01T21:44:41.566Z,84.11
2022-10-01T21:47:46.463Z,84.69
2022-10-01T21:50:48.310Z,85.79
2022-10-01T21:53:56.604Z,86.59
2022-10-01T21:57:10.407Z,86.41
2022-10-01T22:00:21.662Z,87.80
2022-10-01T22:03:42.126Z,88.88
2022-10-01T22:06:58.426Z,90.53
2022-10-01T22:10:08.324Z,90.46
2022-10-01T22:13:19.005Z,91.62
2022-10-01T22:16:22.873Z,92.64
2022-10-01T22:19:29.685Z,91.63
2022-10-01T22:22:35.605Z,89.34
2022-10-01T22:25:42.825Z,87.21
2022-10-01T22:28:47.734Z,89.84
2022-10-01T22:31:51.585Z,90.68
2022-10-01T22:34:58.824Z,92.43
2022-10-01T22:38:20.973Z,92.10
2022-10-01T22:41:42.873Z,94.25
2022-10-01T22:44:44.862Z,95.46
2022-10-01T22:48:05.924Z,97.05
2022-10-01T22:51:07.954Z,96.88
2022-10-01T22:54:13.648Z,91.67
2022-10-01T22:57:21.610Z,90.70
2022-10-01T23:00:23.920Z,93.04
2022-10-01T23:03:44.778Z,90.77
2022-10-01T23:06:52.993Z,90.48
2022-10-01T23:10:15.326Z,90.13
2022-10-01T23:13:29.496Z,89.97
2022-10-01T23:16:42.300Z,91.21
2022-10-01T23:19:44.482Z,89.54
2022-10-01T23:22:52.348Z,90.64
2022-10-01T23:25:57.590Z,91.00
2022-10-01T23:29:10.137Z,92.16
2022-10-01T23:32:15.396Z,90.88
2022-10-01T23:35:19.291Z,92.01
2022-10-01T23:38:32.284Z,93.50
2022-10-01T23:41:38.392Z,93.22
2022-10-01T23:45:01.947Z,90.99
2022-10-01T23:48:13.189Z,88.47
2022-10-01T23:51:24.573Z,89.50
2022-10-01T23:54:30.101Z,89.47
2022-10-01T23:57:36.135Z,91.56
